Time;durP1;ratioP1;P1;durP2;ratioP2;P2;SDS_P1;SDS_P2;PMS_P1;PMS_P2;Temp;Humidity;BMP_temperature;BMP_pressure;BME280_temperature;BME280_humidity;BME280_pressure;Samples;Min_cycle;Max_cycle;Signal;HPM_P1;HPM_P2
2022/08/22 00:02:13;;;;;;;2.57;2.37;;;17.70;56.70;;;;;;5020190;28;20045;-71
2022/08/22 00:04:47;;;;;;;4.68;2.60;;;17.60;56.70;;;;;;5031759;28;20038;-72
2022/08/22 00:07:18;;;;;;;3.92;2.50;;;17.60;56.60;;;;;;5002161;28;20037;-72
2022/08/22 00:10:00;;;;;;;5.20;2.40;;;17.50;56.70;;;;;;5031968;28;20056;-72
2022/08/22 00:12:35;;;;;;;;;;;17.50;57.00;;;;;;4983898;28;20050;-72
2022/08/22 00:15:03;;;;;;;3.10;2.42;;;17.50;56.70;;;;;;4999538;28;20481;-72
2022/08/22 00:17:44;;;;;;;3.50;2.22;;;17.40;56.70;;;;;;4999695;28;20045;-71
2022/08/22 00:20:25;;;;;;;6.20;3.25;;;17.40;56.90;;;;;;4998672;28;20128;-71
2022/08/22 00:23:10;;;;;;;3.92;2.35;;;17.30;56.90;;;;;;5000004;28;20061;-71
2022/08/22 00:25:43;;;;;;;4.15;2.03;;;17.30;57.30;;;;;;5000074;28;20038;-73
2022/08/22 00:28:10;;;;;;;4.10;2.40;;;17.30;57.50;;;;;;4984164;28;20407;-71
2022/08/22 00:30:50;;;;;;;3.88;2.30;;;17.30;57.30;;;;;;4997651;28;20042;-71
2022/08/22 00:33:33;;;;;;;6.07;2.88;;;17.20;57.60;;;;;;4986383;28;21458;-71
2022/08/22 00:36:08;;;;;;;7.28;2.47;;;17.20;57.70;;;;;;4986301;28;20095;-73
2022/08/22 00:38:37;;;;;;;3.33;2.70;;;17.10;57.60;;;;;;4998506;28;20041;-71
2022/08/22 00:41:13;;;;;;;3.78;2.50;;;17.10;57.70;;;;;;4971695;28;20030;-73
2022/08/22 00:43:47;;;;;;;3.28;2.47;;;17.10;57.90;;;;;;5003252;28;20041;-73
2022/08/22 00:46:37;;;;;;;3.38;2.38;;;17.00;58.10;;;;;;5000182;28;20049;-72
2022/08/22 00:49:21;;;;;;;3.63;2.22;;;17.00;58.20;;;;;;4999550;28;20058;-72
2022/08/22 00:52:17;;;;;;;4.45;2.47;;;17.00;58.20;;;;;;4999810;28;20133;-72
2022/08/22 00:54:59;;;;;;;2.38;2.17;;;16.90;58.60;;;;;;4999932;28;20030;-73
2022/08/22 00:57:48;;;;;;;3.88;2.33;;;16.90;58.60;;;;;;4986325;28;20045;-73
2022/08/22 01:00:17;;;;;;;4.05;2.33;;;16.80;58.70;;;;;;4998324;28;20120;-73
2022/08/22 01:03:09;;;;;;;4.20;2.90;;;16.80;58.50;;;;;;4983212;28;20030;-72
2022/08/22 01:05:46;;;;;;;2.38;1.92;;;16.80;58.80;;;;;;4997824;28;20040;-71
2022/08/22 01:08:35;;;;;;;5.82;2.75;;;16.70;58.70;;;;;;4999669;28;20084;-72
2022/08/22 01:11:17;;;;;;;3.60;2.40;;;16.70;59.10;;;;;;4981623;28;20057;-74
2022/08/22 01:14:28;;;;;;;2.85;2.25;;;16.70;59.20;;;;;;4996354;28;20636;-72
2022/08/22 01:16:58;;;;;;;3.50;2.10;;;16.70;59.30;;;;;;4967810;28;20052;-71
2022/08/22 01:19:57;;;;;;;3.75;2.40;;;16.60;58.90;;;;;;4998666;28;20539;-71
2022/08/22 01:22:50;;;;;;;2.80;1.90;;;16.60;59.40;;;;;;4991783;28;20101;-72
2022/08/22 01:25:34;;;;;;;3.33;2.20;;;16.60;59.60;;;;;;4998619;28;22248;-73
2022/08/22 01:28:30;;;;;;;2.40;2.17;;;16.50;59.50;;;;;;4999907;28;20415;-72
2022/08/22 01:31:20;;;;;;;3.15;2.25;;;16.50;59.70;;;;;;4996548;28;20073;-72
2022/08/22 01:34:23;;;;;;;4.60;2.42;;;16.50;59.50;;;;;;5011605;28;20038;-73
2022/08/22 01:37:22;;;;;;;4.25;2.50;;;16.50;59.90;;;;;;5013189;28;20036;-72
2022/08/22 01:40:02;;;;;;;2.45;2.20;;;16.40;59.90;;;;;;4995805;28;20050;-72
2022/08/22 01:42:44;;;;;;;4.55;2.45;;;16.40;59.70;;;;;;4999244;28;20037;-73
2022/08/22 01:45:18;;;;;;;2.63;2.13;;;16.30;60.50;;;;;;4998036;28;20038;-71
2022/08/22 01:48:14;;;;;;;3.42;2.38;;;16.30;60.00;;;;;;4980592;28;20038;-72
2022/08/22 01:50:49;;;;;;;5.68;2.67;;;16.20;60.30;;;;;;4996465;28;20085;-72
2022/08/22 01:53:24;;;;;;;3.35;2.33;;;16.30;60.20;;;;;;4982437;28;20040;-72
2022/08/22 01:56:08;;;;;;;4.78;2.42;;;16.20;60.40;;;;;;4977320;28;20097;-72
2022/08/22 01:58:35;;;;;;;3.42;2.20;;;16.20;60.50;;;;;;4980144;28;20041;-73
2022/08/22 02:01:23;;;;;;;3.13;2.28;;;16.10;60.20;;;;;;4997055;28;20053;-74
2022/08/22 02:04:04;;;;;;;3.58;2.17;;;16.10;60.60;;;;;;4996831;28;20044;-73
2022/08/22 02:06:33;;;;;;;4.03;2.70;;;16.10;60.70;;;;;;4996290;28;20072;-73
2022/08/22 02:09:06;;;;;;;5.20;2.45;;;16.10;60.60;;;;;;5001658;28;20038;-73
2022/08/22 02:11:56;;;;;;;4.35;2.60;;;16.10;60.90;;;;;;4995943;28;20048;-72
2022/08/22 02:14:45;;;;;;;5.40;2.00;;;16.00;60.90;;;;;;5013543;28;20038;-72
2022/08/22 02:17:27;;;;;;;4.25;2.22;;;16.00;60.80;;;;;;4995137;28;20041;-72
2022/08/22 02:20:23;;;;;;;2.50;2.30;;;16.00;60.90;;;;;;4981443;28;20546;-72
2022/08/22 02:23:42;;;;;;;5.00;2.65;;;15.90;61.40;;;;;;4996241;28;20053;-72
2022/08/22 02:26:21;;;;;;;4.55;2.50;;;15.90;61.40;;;;;;4957054;28;20047;-71
2022/08/22 02:28:57;;;;;;;2.47;2.28;;;15.90;61.50;;;;;;4939991;28;20085;-71
2022/08/22 02:31:57;;;;;;;6.10;2.25;;;15.90;61.30;;;;;;4973913;28;20366;-71
2022/08/22 02:34:39;;;;;;;5.15;2.08;;;15.80;61.60;;;;;;4983308;28;20045;-72
2022/08/22 02:37:09;;;;;;;5.82;2.92;;;15.80;61.70;;;;;;4983885;28;20928;-74
2022/08/22 02:39:44;;;;;;;3.45;2.30;;;15.80;61.50;;;;;;5003501;28;20041;-71
2022/08/22 02:42:16;;;;;;;4.53;2.72;;;15.80;61.50;;;;;;4989423;28;20037;-72
2022/08/22 02:44:50;;;;;;;2.88;2.25;;;15.70;61.70;;;;;;4997219;28;20403;-72
2022/08/22 02:47:28;;;;;;;4.85;2.50;;;15.70;61.70;;;;;;4985410;28;20068;-72
2022/08/22 02:50:05;;;;;;;5.57;2.30;;;15.70;62.00;;;;;;4971190;28;20089;-72
2022/08/22 02:52:52;;;;;;;5.95;2.28;;;15.60;62.00;;;;;;5001081;28;20081;-73
2022/08/22 02:55:20;;;;;;;7.32;2.78;;;15.60;62.00;;;;;;5000337;28;20065;-73
2022/08/22 02:58:07;;;;;;;4.57;2.78;;;15.60;62.10;;;;;;4985612;28;20040;-72
2022/08/22 03:01:10;;;;;;;3.40;2.60;;;15.60;62.30;;;;;;5000307;28;20069;-71
2022/08/22 03:03:38;;;;;;;3.20;2.28;;;15.50;62.70;;;;;;4998775;28;20071;-72
2022/08/22 03:06:04;;;;;;;6.75;2.30;;;15.50;62.30;;;;;;4997822;28;20095;-72
2022/08/22 03:08:40;;;;;;;4.18;2.40;;;15.50;62.40;;;;;;4998045;28;20045;-72
2022/08/22 03:11:23;;;;;;;5.88;2.88;;;15.50;62.70;;;;;;5002359;28;20475;-73
2022/08/22 03:14:08;;;;;;;5.38;2.30;;;15.40;63.10;;;;;;5018488;28;20042;-72
2022/08/22 03:16:57;;;;;;;8.15;3.10;;;15.40;63.10;;;;;;4984837;28;20038;-72
2022/08/22 03:19:41;;;;;;;4.72;2.40;;;15.40;63.00;;;;;;5000817;28;20038;-72
2022/08/22 03:22:09;;;;;;;5.25;2.38;;;15.40;63.60;;;;;;5000960;28;20026;-72
2022/08/22 03:25:11;;;;;;;4.60;2.45;;;15.40;63.10;;;;;;4983792;28;20099;-73
2022/08/22 03:27:42;;;;;;;2.33;2.13;;;15.30;63.50;;;;;;4998009;28;20466;-73
2022/08/22 03:30:14;;;;;;;4.82;2.60;;;15.30;63.20;;;;;;4997434;28;20042;-73
2022/08/22 03:33:11;;;;;;;4.70;2.25;;;15.30;63.30;;;;;;4996098;28;20566;-72
2022/08/22 03:35:41;;;;;;;6.65;2.60;;;15.20;63.50;;;;;;4998285;28;20046;-72
2022/08/22 03:38:25;;;;;;;3.05;2.42;;;15.20;63.40;;;;;;5000254;28;20049;-73
2022/08/22 03:41:16;;;;;;;2.35;2.10;;;15.20;64.00;;;;;;5002992;28;20037;-72
2022/08/22 03:43:42;;;;;;;3.45;2.45;;;15.20;63.80;;;;;;4987658;28;20099;-74
2022/08/22 03:46:45;;;;;;;3.05;2.17;;;15.10;63.40;;;;;;5003499;28;20912;-72
2022/08/22 03:49:49;;;;;;;4.50;2.85;;;15.10;64.00;;;;;;5014944;28;20034;-74
2022/08/22 03:53:06;;;;;;;3.08;2.60;;;15.10;64.00;;;;;;5018363;28;20074;-72
2022/08/22 03:56:02;;;;;;;2.85;2.42;;;15.00;64.00;;;;;;5002188;28;20049;-72
2022/08/22 03:58:57;;;;;;;4.18;2.33;;;15.00;63.80;;;;;;4981546;28;20052;-73
2022/08/22 04:01:43;;;;;;;3.45;2.92;;;15.00;64.30;;;;;;5000082;28;20038;-73
2022/08/22 04:04:33;;;;;;;4.82;2.58;;;14.90;64.20;;;;;;5002650;28;20434;-72
2022/08/22 04:07:02;;;;;;;3.55;2.58;;;14.90;64.40;;;;;;4997812;28;20038;-72
2022/08/22 04:09:42;;;;;;;3.97;2.50;;;14.90;64.90;;;;;;5000566;28;21294;-73
2022/08/22 04:12:19;;;;;;;3.90;2.35;;;14.90;64.30;;;;;;5002552;28;20061;-72
2022/08/22 04:14:53;;;;;;;2.20;2.00;;;14.90;64.30;;;;;;4998492;28;20030;-72
2022/08/22 04:17:36;;;;;;;3.30;2.30;;;14.80;64.40;;;;;;5020827;28;20043;-72
2022/08/22 04:20:39;;;;;;;3.60;2.40;;;14.80;64.60;;;;;;5035200;28;20581;-73
2022/08/22 04:23:16;;;;;;;3.65;2.22;;;14.80;64.90;;;;;;5021694;28;20107;-72
2022/08/22 04:25:44;;;;;;;3.60;2.67;;;14.80;64.70;;;;;;5019275;28;20719;-73
2022/08/22 04:28:24;;;;;;;5.88;2.15;;;14.70;64.60;;;;;;5002151;28;20041;-72
2022/08/22 04:31:04;;;;;;;4.60;2.85;;;14.70;65.00;;;;;;5001171;28;20044;-73
2022/08/22 04:33:44;;;;;;;3.60;2.50;;;14.70;65.00;;;;;;5016395;28;20105;-72
2022/08/22 04:36:25;;;;;;;3.72;2.53;;;14.70;65.00;;;;;;5016709;28;20041;-72
2022/08/22 04:39:17;;;;;;;3.83;2.20;;;14.60;65.20;;;;;;5019910;28;20033;-73
2022/08/22 04:42:04;;;;;;;2.95;2.13;;;14.60;65.60;;;;;;5019439;28;20645;-73
2022/08/22 04:44:43;;;;;;;5.18;2.60;;;14.60;65.70;;;;;;5033423;28;20030;-74
2022/08/22 04:47:12;;;;;;;2.92;2.65;;;14.60;65.60;;;;;;5003221;28;20057;-73
2022/08/22 04:49:43;;;;;;;2.83;2.30;;;14.60;65.40;;;;;;5020068;28;20026;-71
2022/08/22 04:52:44;;;;;;;5.68;2.78;;;14.50;65.50;;;;;;5003047;28;20795;-73
2022/08/22 04:55:24;;;;;;;3.40;2.85;;;14.50;65.80;;;;;;5005914;28;20054;-72
2022/08/22 04:58:10;;;;;;;3.80;2.15;;;14.50;65.90;;;;;;5015148;28;20034;-73
2022/08/22 05:00:51;;;;;;;5.57;2.33;;;14.50;66.00;;;;;;5019670;28;20041;-72
2022/08/22 05:03:16;;;;;;;3.75;2.80;;;14.50;67.00;;;;;;5001844;28;20041;-72
2022/08/22 05:05:42;;;;;;;3.05;2.50;;;14.50;65.90;;;;;;5000035;28;20033;-72
2022/08/22 05:08:10;;;;;;;6.25;2.40;;;14.50;66.00;;;;;;5016414;28;20029;-73
2022/08/22 05:10:45;;;;;;;3.85;2.67;;;14.50;66.10;;;;;;5003007;28;20065;-73
2022/08/22 05:13:17;;;;;;;2.55;2.35;;;14.50;66.50;;;;;;5001634;28;20598;-73
2022/08/22 05:15:46;;;;;;;4.65;2.63;;;14.50;66.80;;;;;;4997448;28;20103;-72
2022/08/22 05:18:23;;;;;;;5.07;3.00;;;14.50;66.50;;;;;;4984281;28;20038;-73
2022/08/22 05:20:49;;;;;;;2.65;2.45;;;14.50;66.90;;;;;;5017973;28;20053;-73
2022/08/22 05:23:36;;;;;;;3.28;2.75;;;14.50;66.50;;;;;;5003768;28;20045;-72
2022/08/22 05:26:02;;;;;;;5.35;3.00;;;14.50;67.00;;;;;;5008450;28;20045;-73
2022/08/22 05:28:34;;;;;;;4.43;2.47;;;14.50;66.80;;;;;;4993533;28;20097;-72
2022/08/22 05:31:01;;;;;;;;;;;14.50;67.00;;;;;;5028531;28;20045;-74
2022/08/22 05:33:30;;;;;;;4.82;2.75;;;14.50;66.70;;;;;;5024066;28;19947;-73
2022/08/22 05:36:05;;;;;;;4.88;3.25;;;14.50;66.80;;;;;;5025012;28;20041;-72
2022/08/22 05:38:33;;;;;;;3.53;2.85;;;14.50;67.20;;;;;;4998069;28;20044;-73
2022/08/22 05:41:22;;;;;;;4.05;3.00;;;14.60;67.20;;;;;;5009567;28;20033;-73
2022/08/22 05:43:48;;;;;;;5.22;2.80;;;14.60;68.00;;;;;;4991803;28;20040;-73
2022/08/22 05:46:39;;;;;;;3.70;3.28;;;14.60;67.40;;;;;;5023304;28;20040;-72
2022/08/22 05:49:06;;;;;;;;;;;14.60;67.80;;;;;;5025864;28;20122;-73
2022/08/22 05:51:41;;;;;;;3.50;2.90;;;14.70;67.30;;;;;;5025757;28;19936;-73
2022/08/22 05:54:21;;;;;;;5.20;3.15;;;14.70;67.30;;;;;;5008649;28;20065;-73
2022/08/22 05:56:56;;;;;;;4.75;3.17;;;14.70;68.90;;;;;;4995433;28;20037;-72
2022/08/22 05:59:32;;;;;;;5.47;3.60;;;14.80;67.70;;;;;;5008662;28;20038;-73
2022/08/22 06:02:05;;;;;;;6.15;3.70;;;14.80;68.20;;;;;;4990957;28;20752;-74
2022/08/22 06:04:44;;;;;;;6.20;3.90;;;14.90;68.10;;;;;;5009797;28;20042;-73
2022/08/22 06:07:20;;;;;;;5.60;4.00;;;14.90;68.20;;;;;;5013308;28;20040;-72
2022/08/22 06:09:46;;;;;;;8.73;4.38;;;15.00;68.20;;;;;;4991236;28;20032;-73
2022/08/22 06:12:45;;;;;;;8.40;4.40;;;15.00;68.20;;;;;;5012161;28;20038;-73
2022/08/22 06:15:19;;;;;;;6.47;4.22;;;15.10;69.00;;;;;;4988328;28;20099;-73
2022/08/22 06:18:03;;;;;;;10.85;4.95;;;15.20;68.20;;;;;;5011797;28;20471;-74
2022/08/22 06:20:38;;;;;;;6.57;3.55;;;15.30;68.80;;;;;;5013408;28;20065;-74
2022/08/22 06:23:03;;;;;;;12.90;3.88;;;15.40;68.70;;;;;;5015059;28;20038;-74
2022/08/22 06:25:33;;;;;;;9.13;3.97;;;15.50;68.50;;;;;;4993133;28;20048;-74
2022/08/22 06:28:03;;;;;;;7.57;3.78;;;15.60;68.80;;;;;;4996443;28;20137;-74
2022/08/22 06:30:29;;;;;;;8.55;3.65;;;15.60;68.60;;;;;;4995135;28;20045;-74
2022/08/22 06:32:59;;;;;;;6.72;3.65;;;15.80;68.60;;;;;;4997222;28;20129;-74
2022/08/22 06:38:27;;;;;;;10.50;2.90;;;16.00;68.80;;;;;;4996288;28;20703;-74
2022/08/22 06:40:53;;;;;;;10.25;3.45;;;16.20;68.30;;;;;;4994723;28;20120;-73
2022/08/22 06:43:19;;;;;;;6.78;3.17;;;16.30;68.20;;;;;;5000471;28;20665;-74
2022/08/22 06:45:45;;;;;;;4.50;2.97;;;16.50;68.20;;;;;;4997130;28;20045;-73
2022/08/22 06:48:14;;;;;;;6.15;3.38;;;16.60;68.00;;;;;;4997075;28;20030;-74
2022/08/22 06:50:41;;;;;;;6.88;3.38;;;16.80;67.80;;;;;;5009953;28;20026;-73
2022/08/22 06:53:18;;;;;;;6.20;3.10;;;16.90;67.60;;;;;;4997909;28;20034;-73
2022/08/22 06:55:55;;;;;;;8.57;3.88;;;17.10;67.60;;;;;;4997477;28;20041;-73
2022/08/22 06:58:24;;;;;;;6.57;3.40;;;17.20;67.30;;;;;;4982395;28;20036;-74
2022/08/22 07:00:52;;;;;;;6.13;4.07;;;17.40;67.10;;;;;;4997196;28;20053;-73
2022/08/22 07:03:19;;;;;;;8.35;4.18;;;17.50;66.90;;;;;;4990185;28;20037;-73
2022/08/22 07:05:45;;;;;;;4.20;3.30;;;17.70;66.70;;;;;;5005830;28;20048;-75
2022/08/22 07:08:14;;;;;;;7.22;3.63;;;17.80;66.40;;;;;;5008692;28;20046;-73
2022/08/22 07:10:53;;;;;;;15.52;4.07;;;18.00;66.30;;;;;;5014464;28;20095;-74
2022/08/22 07:13:18;;;;;;;7.65;4.10;;;18.20;66.10;;;;;;5021014;28;20045;-72
2022/08/22 07:15:54;;;;;;;8.90;4.10;;;18.30;65.90;;;;;;5023042;28;20049;-73
2022/08/22 07:18:23;;;;;;;4.78;2.97;;;18.50;65.70;;;;;;5015947;28;20037;-74
2022/08/22 07:20:51;;;;;;;3.70;3.20;;;18.70;65.60;;;;;;5006842;28;20042;-74
2022/08/22 07:23:32;;;;;;;5.40;3.55;;;18.90;65.40;;;;;;5007692;28;20042;-73
2022/08/22 07:26:28;;;;;;;4.93;3.30;;;19.10;65.30;;;;;;5022074;28;20037;-74
2022/08/22 07:29:02;;;;;;;9.45;3.72;;;19.30;65.00;;;;;;5037979;28;20029;-73
2022/08/22 07:31:57;;;;;;;5.57;3.22;;;19.40;64.50;;;;;;5004273;28;20510;-73
2022/08/22 07:34:42;;;;;;;6.45;3.28;;;19.70;64.40;;;;;;5001899;28;20112;-74
2022/08/22 07:37:15;;;;;;;8.52;3.25;;;19.90;63.90;;;;;;5016979;28;20045;-73
2022/08/22 07:39:48;;;;;;;7.28;3.17;;;20.10;63.50;;;;;;5019331;28;20160;-73
2022/08/22 07:42:20;;;;;;;6.00;3.75;;;20.30;63.20;;;;;;5020990;28;20045;-74
2022/08/22 07:44:54;;;;;;;;;;;20.50;62.80;;;;;;5020318;28;20037;-75
2022/08/22 07:47:21;;;;;;;5.47;3.72;;;20.60;62.40;;;;;;5022695;28;19924;-73
2022/08/22 07:49:50;;;;;;;5.22;2.92;;;20.80;62.10;;;;;;5018896;28;20045;-74
2022/08/22 07:52:16;;;;;;;5.80;3.50;;;21.00;61.80;;;;;;5016307;28;20033;-74
2022/08/22 07:54:44;;;;;;;5.18;3.20;;;21.20;61.50;;;;;;5017715;28;20662;-74
2022/08/22 07:57:14;;;;;;;4.15;3.20;;;21.40;61.20;;;;;;5017754;28;20033;-73
2022/08/22 07:59:53;;;;;;;6.18;3.08;;;21.60;60.90;;;;;;5019694;28;20041;-74
2022/08/22 08:02:18;;;;;;;10.70;3.10;;;21.80;60.40;;;;;;5003207;28;20115;-73
2022/08/22 08:04:44;;;;;;;4.25;3.10;;;22.00;60.00;;;;;;5016708;28;20089;-73
2022/08/22 08:07:10;;;;;;;5.45;3.20;;;22.20;59.60;;;;;;4989299;28;20518;-73
2022/08/22 08:09:45;;;;;;;5.25;3.03;;;22.40;59.30;;;;;;5016330;28;20037;-71
2022/08/22 08:12:11;;;;;;;4.57;2.33;;;22.60;59.00;;;;;;5000573;28;20037;-71
2022/08/22 08:14:39;;;;;;;6.68;2.72;;;22.80;58.70;;;;;;4998824;28;20402;-74
2022/08/22 08:17:11;;;;;;;5.93;2.80;;;23.10;58.40;;;;;;5026754;28;20139;-74
2022/08/22 08:19:39;;;;;;;3.33;2.35;;;23.30;58.10;;;;;;5011306;28;20048;-74
2022/08/22 08:22:04;;;;;;;4.80;2.72;;;23.50;57.60;;;;;;5009971;28;20037;-75
2022/08/22 08:24:37;;;;;;;5.38;2.65;;;23.70;57.30;;;;;;4994400;28;20108;-74
2022/08/22 08:29:58;;;;;;;4.00;2.30;;;24.10;56.40;;;;;;5021980;28;20047;-73
2022/08/22 08:32:26;;;;;;;4.38;2.72;;;24.30;55.80;;;;;;5031956;28;20647;-75
2022/08/22 08:34:52;;;;;;;3.90;2.40;;;24.50;55.50;;;;;;5003514;28;20427;-75
2022/08/22 08:37:40;;;;;;;6.00;2.55;;;24.80;55.20;;;;;;5008209;28;20091;-73
2022/08/22 08:40:12;;;;;;;30.75;8.02;;;25.00;54.40;;;;;;5019775;28;20034;-73
2022/08/22 08:45:47;;;;;;;8.07;2.58;;;25.40;53.80;;;;;;5022981;28;20167;-74
2022/08/22 08:48:26;;;;;;;13.25;3.10;;;25.70;52.70;;;;;;5031535;28;20034;-74
2022/08/22 08:51:12;;;;;;;3.95;2.00;;;25.90;52.10;;;;;;5012344;28;20187;-74
2022/08/22 08:53:44;;;;;;;5.30;1.70;;;26.10;51.60;;;;;;5021753;28;20116;-71
2022/08/22 08:56:44;;;;;;;2.58;1.58;;;26.30;51.40;;;;;;4999099;28;20033;-70
2022/08/22 08:59:25;;;;;;;14.23;5.60;;;26.50;50.40;;;;;;5009396;28;20041;-73
2022/08/22 09:01:56;;;;;;;4.03;2.15;;;26.80;49.90;;;;;;5015425;28;20029;-73
2022/08/22 09:04:43;;;;;;;3.65;2.13;;;27.00;50.00;;;;;;5019195;28;20051;-70
2022/08/22 09:07:39;;;;;;;5.15;2.60;;;27.10;49.20;;;;;;5001367;28;20034;-73
2022/08/22 09:10:22;;;;;;;3.33;1.60;;;27.40;48.30;;;;;;5004153;28;20106;-73
2022/08/22 09:13:16;;;;;;;5.60;1.95;;;27.50;48.10;;;;;;5017881;28;21048;-73
2022/08/22 09:16:00;;;;;;;3.10;1.58;;;27.60;47.40;;;;;;5019107;28;20053;-73
2022/08/22 09:18:47;;;;;;;2.97;1.73;;;27.80;46.60;;;;;;5019545;28;20037;-75
2022/08/22 09:21:33;;;;;;;3.03;1.48;;;28.10;47.10;;;;;;5033797;28;20038;-74
2022/08/22 09:24:47;;;;;;;4.93;1.90;;;28.30;46.50;;;;;;5017600;28;20207;-73
2022/08/22 09:27:20;;;;;;;4.80;1.58;;;28.50;45.70;;;;;;4963957;28;20141;-70
2022/08/22 09:29:52;;;;;;;3.22;1.88;;;28.70;46.00;;;;;;4948957;28;20069;-71
2022/08/22 09:32:41;;;;;;;12.20;3.22;;;28.80;45.40;;;;;;4981361;28;20048;-73
2022/08/22 09:35:22;;;;;;;6.18;1.83;;;29.00;44.40;;;;;;5007963;28;20030;-74
2022/08/22 09:38:13;;;;;;;2.95;1.77;;;29.10;44.40;;;;;;5035986;28;20411;-73
2022/08/22 09:40:46;;;;;;;2.97;1.60;;;29.30;44.30;;;;;;5034201;28;20434;-75
2022/08/22 09:43:20;;;;;;;9.13;1.60;;;29.50;43.90;;;;;;5029983;28;20041;-75
2022/08/22 09:46:04;;;;;;;3.55;1.67;;;29.70;43.60;;;;;;5013309;28;20026;-75
2022/08/22 09:48:45;;;;;;;8.02;1.63;;;29.90;43.10;;;;;;5029956;28;20044;-73
2022/08/22 09:51:29;;;;;;;6.47;1.80;;;30.20;41.90;;;;;;5029373;28;20037;-75
2022/08/22 09:54:04;;;;;;;2.78;1.60;;;30.40;41.40;;;;;;5029006;28;20057;-74
2022/08/22 09:56:32;;;;;;;3.75;1.75;;;30.50;41.10;;;;;;5030040;28;20050;-73
2022/08/22 09:59:06;;;;;;;3.38;1.90;;;30.70;41.60;;;;;;5029731;28;20052;-74
2022/08/22 10:02:06;;;;;;;2.33;1.40;;;30.80;40.90;;;;;;4998282;28;20040;-75
2022/08/22 10:04:56;;;;;;;6.30;1.98;;;31.00;39.80;;;;;;5021639;28;20057;-75
2022/08/22 10:07:55;;;;;;;4.70;1.58;;;31.20;39.50;;;;;;5035298;28;20065;-74
2022/08/22 10:10:45;;;;;;;5.60;1.65;;;31.30;39.50;;;;;;5036140;28;20038;-74
2022/08/22 10:13:36;;;;;;;3.88;1.50;;;31.50;39.40;;;;;;5038921;28;20041;-75
2022/08/22 10:16:29;;;;;;;3.35;1.63;;;31.70;38.80;;;;;;5052049;28;20029;-76
2022/08/22 10:19:31;;;;;;;4.40;1.55;;;31.90;38.70;;;;;;5038690;28;20033;-75
2022/08/22 10:22:25;;;;;;;4.53;1.35;;;32.20;38.30;;;;;;4947135;28;20027;-75
2022/08/22 10:25:06;;;;;;;6.90;1.83;;;32.40;36.90;;;;;;4940346;29;20599;-74
2022/08/22 10:27:31;;;;;;;;;;;32.50;37.20;;;;;;4946837;28;20063;-76
2022/08/22 10:30:06;;;;;;;2.97;1.20;;;32.60;38.10;;;;;;4956143;29;19941;-75
2022/08/22 10:33:01;;;;;;;2.22;1.30;;;32.80;37.60;;;;;;4930109;28;20095;-75
2022/08/22 10:35:42;;;;;;;5.00;1.48;;;33.00;36.50;;;;;;4931573;28;20547;-74
2022/08/22 10:38:15;;;;;;;3.20;1.50;;;33.20;36.90;;;;;;4952310;28;20043;-74
2022/08/22 10:41:11;;;;;;;2.03;1.30;;;33.40;36.40;;;;;;4955637;28;20542;-75
2022/08/22 10:43:39;;;;;;;6.13;1.30;;;33.60;35.70;;;;;;4932644;28;20547;-75
2022/08/22 10:46:11;;;;;;;1.70;1.50;;;33.70;35.80;;;;;;4925488;29;20603;-74
2022/08/22 10:48:45;;;;;;;2.22;1.30;;;33.80;35.40;;;;;;4926010;29;20055;-75
2022/08/22 10:51:35;;;;;;;4.40;1.60;;;34.00;34.70;;;;;;4955497;28;20040;-75
2022/08/22 10:54:40;;;;;;;3.73;1.20;;;34.20;33.40;;;;;;4911337;29;20039;-76
2022/08/22 10:57:40;;;;;;;1.77;1.10;;;34.30;33.50;;;;;;5037205;28;20317;-75
2022/08/22 11:00:47;;;;;;;2.43;1.30;;;34.50;33.20;;;;;;5038106;28;20115;-75
2022/08/22 11:03:37;;;;;;;2.63;1.20;;;34.60;33.80;;;;;;4978973;28;20038;-76
2022/08/22 11:06:05;;;;;;;3.53;1.23;;;34.80;33.00;;;;;;4986021;28;20030;-75
2022/08/22 11:09:13;;;;;;;2.65;1.30;;;34.90;33.60;;;;;;4967335;28;20038;-75
2022/08/22 11:11:41;;;;;;;2.33;1.40;;;35.00;32.70;;;;;;4972663;28;20314;-76
2022/08/22 11:14:31;;;;;;;2.92;1.27;;;35.10;33.30;;;;;;5001821;28;20095;-75
2022/08/22 11:17:01;;;;;;;2.30;1.10;;;35.30;32.20;;;;;;4996832;28;20431;-75
2022/08/22 11:19:37;;;;;;;3.00;1.10;;;35.30;32.90;;;;;;4987196;28;20102;-76
2022/08/22 11:22:25;;;;;;;3.13;1.30;;;35.40;31.80;;;;;;4983673;28;20042;-76
2022/08/22 11:25:01;;;;;;;2.30;1.58;;;35.50;31.40;;;;;;4985513;28;20035;-76
2022/08/22 11:27:58;;;;;;;4.57;1.70;;;35.60;32.00;;;;;;4974512;28;20062;-75
2022/08/22 11:30:35;;;;;;;4.18;1.60;;;35.80;31.30;;;;;;5001032;28;20441;-75
2022/08/22 11:33:09;;;;;;;3.35;1.52;;;35.90;31.10;;;;;;4976332;28;20049;-75
2022/08/22 11:35:43;;;;;;;3.53;1.35;;;36.10;30.90;;;;;;5042032;28;20486;-75
2022/08/22 11:38:29;;;;;;;1.95;1.00;;;36.20;31.00;;;;;;5030371;28;20041;-75
2022/08/22 11:41:04;;;;;;;1.73;1.20;;;36.20;30.00;;;;;;5042751;28;20112;-75
2022/08/22 11:43:55;;;;;;;3.38;1.10;;;36.10;30.00;;;;;;5023665;28;20033;-75
2022/08/22 11:46:21;;;;;;;2.75;1.45;;;36.00;29.80;;;;;;5046366;28;20045;-76
2022/08/22 11:49:14;;;;;;;3.88;1.30;;;36.00;30.00;;;;;;5059974;28;20037;-75
2022/08/22 11:51:46;;;;;;;2.08;1.13;;;36.00;29.50;;;;;;5042581;28;20092;-76
2022/08/22 11:54:33;;;;;;;1.60;1.27;;;36.10;30.00;;;;;;5040914;28;20130;-75
2022/08/22 11:57:17;;;;;;;1.85;1.10;;;35.90;29.70;;;;;;5052774;28;20554;-75
2022/08/22 12:00:19;;;;;;;1.85;0.98;;;35.80;29.30;;;;;;5039595;28;20138;-75
2022/08/22 12:02:50;;;;;;;1.35;0.95;;;35.70;28.90;;;;;;5039305;28;20175;-75
2022/08/22 12:05:21;;;;;;;2.05;1.45;;;35.70;29.40;;;;;;5054686;28;20041;-76
2022/08/22 12:08:21;;;;;;;1.65;1.02;;;35.70;29.30;;;;;;5021326;28;20560;-76
2022/08/22 12:10:57;;;;;;;2.08;1.08;;;35.70;28.70;;;;;;5038722;28;20079;-76
2022/08/22 12:13:40;;;;;;;2.85;1.20;;;35.60;29.20;;;;;;5004726;28;20115;-73
2022/08/22 12:16:16;;;;;;;2.83;1.10;;;35.60;28.70;;;;;;5047083;28;20163;-75
2022/08/22 12:18:48;;;;;;;3.47;1.20;;;35.60;29.10;;;;;;5031826;28;20043;-75
2022/08/22 12:21:33;;;;;;;1.17;0.98;;;35.50;29.10;;;;;;5032581;28;20029;-75
2022/08/22 12:24:19;;;;;;;3.17;0.90;;;35.40;29.00;;;;;;5039245;28;20045;-74
2022/08/22 12:26:54;;;;;;;3.33;1.13;;;35.30;28.10;;;;;;5024697;28;20119;-74
2022/08/22 12:29:50;;;;;;;2.90;0.93;;;35.20;28.80;;;;;;5057222;28;20060;-75
2022/08/22 12:32:34;;;;;;;0.98;0.70;;;35.10;28.00;;;;;;5016925;28;20171;-75
2022/08/22 12:35:21;;;;;;;3.20;1.33;;;35.20;28.00;;;;;;5037397;28;20055;-74
2022/08/22 12:37:53;;;;;;;1.10;0.80;;;35.30;28.40;;;;;;5037524;28;20025;-75
2022/08/22 12:40:38;;;;;;;5.32;1.13;;;35.30;28.40;;;;;;5037602;28;20053;-74
2022/08/22 12:43:07;;;;;;;2.70;1.15;;;35.50;28.20;;;;;;5006606;28;20029;-75
2022/08/22 12:45:36;;;;;;;9.60;1.48;;;35.60;28.50;;;;;;5036940;28;20025;-74
2022/08/22 12:48:32;;;;;;;5.78;1.40;;;35.60;28.50;;;;;;5037707;28;20044;-75
2022/08/22 12:51:23;;;;;;;2.30;0.95;;;35.70;28.20;;;;;;5043065;28;20516;-74
2022/08/22 12:54:07;;;;;;;5.45;1.45;;;35.70;28.40;;;;;;5053187;28;20052;-75
2022/08/22 12:56:48;;;;;;;1.90;1.10;;;35.70;28.30;;;;;;5041263;28;20033;-74
2022/08/22 12:59:28;;;;;;;1.60;1.00;;;35.80;28.60;;;;;;5050275;28;20025;-74
2022/08/22 13:01:55;;;;;;;;;;;35.90;28.70;;;;;;5046970;28;20025;-74
2022/08/22 13:04:23;;;;;;;1.25;1.08;;;36.00;28.80;;;;;;5028619;28;19952;-73
2022/08/22 13:07:01;;;;;;;2.38;1.20;;;36.00;28.70;;;;;;5019020;28;20063;-74
2022/08/22 13:09:29;;;;;;;2.83;1.42;;;36.20;28.50;;;;;;5021941;28;20525;-74
2022/08/22 13:12:16;;;;;;;4.70;1.00;;;36.20;28.40;;;;;;5002151;28;20567;-75
2022/08/22 13:14:43;;;;;;;2.58;0.90;;;36.30;28.40;;;;;;5004045;28;20040;-75
2022/08/22 13:17:11;;;;;;;4.28;1.10;;;36.40;28.10;;;;;;5020899;28;20497;-74
2022/08/22 13:19:51;;;;;;;2.05;1.10;;;36.40;27.90;;;;;;5017758;28;20053;-75
2022/08/22 13:22:19;;;;;;;4.50;1.13;;;36.60;28.30;;;;;;5019174;28;20043;-74
2022/08/22 13:25:05;;;;;;;2.40;1.08;;;36.50;27.50;;;;;;5018217;28;20029;-75
2022/08/22 13:27:39;;;;;;;4.72;0.95;;;36.60;27.40;;;;;;5042267;28;20075;-75
2022/08/22 13:30:07;;;;;;;3.17;1.20;;;36.70;27.40;;;;;;5025893;28;20045;-74
2022/08/22 13:32:53;;;;;;;3.30;1.30;;;36.70;27.40;;;;;;5024337;28;20037;-75
2022/08/22 13:35:35;;;;;;;1.55;1.10;;;36.80;27.40;;;;;;5041246;28;20056;-74
2022/08/22 13:38:06;;;;;;;4.15;1.25;;;36.80;27.10;;;;;;5026642;28;20037;-75
2022/08/22 13:40:32;;;;;;;4.20;1.10;;;36.90;27.30;;;;;;5028721;28;20052;-75
2022/08/22 13:43:08;;;;;;;1.55;0.80;;;36.90;27.30;;;;;;5026295;28;20110;-74
2022/08/22 13:45:35;;;;;;;3.20;0.95;;;37.00;27.10;;;;;;5018778;28;20055;-75
2022/08/22 13:48:08;;;;;;;2.40;0.93;;;37.00;27.70;;;;;;5021723;28;20075;-75
2022/08/22 13:50:34;;;;;;;2.30;0.80;;;37.10;27.00;;;;;;5025035;28;20041;-76
2022/08/22 13:53:09;;;;;;;3.72;1.10;;;37.10;27.00;;;;;;5028808;28;20033;-75
2022/08/22 13:55:49;;;;;;;1.73;0.95;;;37.10;26.40;;;;;;5024752;28;20108;-75
2022/08/22 13:58:27;;;;;;;1.65;1.00;;;37.10;26.40;;;;;;5040787;28;20029;-75
2022/08/22 14:01:11;;;;;;;3.30;1.20;;;37.10;26.40;;;;;;5024374;28;20093;-75